Time;durP1;ratioP1;P1;durP2;ratioP2;P2;SDS_P1;SDS_P2;PMS_P1;PMS_P2;Temp;Humidity;BMP_temperature;BMP_pressure;BME280_temperature;BME280_humidity;BME280_pressure;Samples;Min_cycle;Max_cycle;Signal;HPM_P1;HPM_P2
2022/09/10 00:01:55;;;;;;;;;;;;;;;20.29;55.71;99976.31;5009515;28;6835;-84
2022/09/10 00:04:21;;;;;;;;;;;;;;;20.31;55.90;99982.38;5006535;28;7036;-83
2022/09/10 00:06:47;;;;;;;;;;;;;;;20.32;55.99;99973.69;5012198;28;6807;-84
2022/09/10 00:09:16;;;;;;;;;;;;;;;20.36;56.17;99986.72;4996335;28;6870;-84
2022/09/10 00:11:48;;;;;;;;;;;;;;;20.38;55.71;99987.63;4999867;28;6807;-83
2022/09/10 00:14:24;;;;;;;;;;;;;;;20.37;55.77;99980.66;5012136;28;6978;-84
2022/09/10 00:16:56;;;;;;;;;;;;;;;20.42;55.39;99983.25;4999419;28;6987;-84
2022/09/10 00:19:25;;;;;;;;;;;;;;;20.42;55.41;99985.84;4993269;28;6999;-84
2022/09/10 00:21:51;;;;;;;;;;;;;;;20.43;55.86;99978.94;4980067;28;6971;-84
2022/09/10 00:24:16;;;;;;;;;;;;;;;20.44;55.72;99981.53;4994301;28;7121;-84
2022/09/10 00:26:45;;;;;;;;;;;;;;;20.45;55.77;99982.41;5002228;28;8383;-84
2022/09/10 00:29:24;;;;;;;;;;;;;;;20.47;55.43;99986.75;5005048;28;6823;-84
2022/09/10 00:31:56;;;;;;;;;;;;;;;20.52;55.68;99991.94;4998451;28;7118;-84
2022/09/10 00:34:24;;;;;;;;;;;;;;;20.54;55.50;99990.22;4996520;28;6976;-83
2022/09/10 00:36:52;;;;;;;;;;;;;;;20.55;55.40;99994.53;4996130;28;6989;-84
2022/09/10 00:39:24;;;;;;;;;;;;;;;20.53;55.36;99991.97;5010060;28;7449;-84
2022/09/10 00:42:10;;;;;;;;;;;;;;;20.57;55.43;99991.94;5009212;28;6979;-84
2022/09/10 00:44:59;;;;;;;;;;;;;;;20.58;55.83;99989.34;4988117;28;6814;-84
2022/09/10 00:47:39;;;;;;;;;;;;;;;20.60;55.76;99991.94;5011836;28;6890;-84
2022/09/10 00:50:18;;;;;;;;;;;;;;;20.61;55.75;99991.94;5011164;28;7394;-84
2022/09/10 00:52:52;;;;;;;;;;;;;;;20.61;55.37;99986.75;4998950;28;7007;-84
2022/09/10 00:55:21;;;;;;;;;;;;;;;20.61;55.75;99984.16;5010369;28;6863;-84
2022/09/10 00:57:56;;;;;;;;;;;;;;;20.62;55.29;99978.06;5010357;28;7089;-84
2022/09/10 01:00:25;;;;;;;;;;;;;;;20.59;55.49;99975.47;4992987;28;6970;-84
2022/09/10 01:03:07;;;;;;;;;;;;;;;20.57;55.58;99972.00;4997436;28;6975;-84
2022/09/10 01:05:50;;;;;;;;;;;;;;;20.53;55.17;99962.44;4993276;28;8524;-84
2022/09/10 01:08:23;;;;;;;;;;;;;;;20.49;55.67;99964.19;5000520;28;6808;-84
2022/09/10 01:11:20;;;;;;;;;;;;;;;20.44;55.41;99960.72;5011594;28;6980;-84
2022/09/10 01:14:12;;;;;;;;;;;;;;;20.39;55.89;99963.31;4992315;28;7094;-84
2022/09/10 01:17:10;;;;;;;;;;;;;;;20.36;56.00;99963.31;4990592;28;6784;-84
2022/09/10 01:20:43;;;;;;;;;;;;;;;20.34;55.34;99970.25;4999302;28;6961;-84
2022/09/10 01:23:58;;;;;;;;;;;;;;;20.28;55.54;99962.44;5009235;28;7167;-84
2022/09/10 01:26:46;;;;;;;;;;;;;;;20.25;56.02;99967.63;4984875;28;6977;-84
2022/09/10 01:30:02;;;;;;;;;;;;;;;20.26;56.02;99971.97;4992775;28;6962;-84
2022/09/10 01:33:19;;;;;;;;;;;;;;;20.27;55.95;99978.91;4982968;28;7248;-84
2022/09/10 01:36:32;;;;;;;;;;;;;;;20.24;56.06;99968.50;4962623;28;6994;-84
2022/09/10 01:39:08;;;;;;;;;;;;;;;20.20;56.34;99974.59;4979116;28;6970;-84
2022/09/10 01:41:36;;;;;;;;;;;;;;;20.17;55.80;99971.94;4996142;28;7176;-84
2022/09/10 01:44:49;;;;;;;;;;;;;;;20.21;56.05;99984.13;5002958;28;7090;-83
2022/09/10 01:48:01;;;;;;;;;;;;;;;20.14;55.76;99984.97;4981241;28;6882;-84
2022/09/10 01:50:48;;;;;;;;;;;;;;;20.02;56.08;99993.59;4999778;28;7014;-83
2022/09/10 01:54:10;;;;;;;;;;;;;;;19.91;56.61;99983.16;4996431;28;7242;-84
2022/09/10 01:56:42;;;;;;;;;;;;;;;19.75;56.73;99983.09;4983149;28;7190;-84
2022/09/10 01:59:29;;;;;;;;;;;;;;;19.65;56.77;99968.31;4997763;28;7513;-84
2022/09/10 02:02:13;;;;;;;;;;;;;;;19.57;57.57;99971.75;5000673;28;7063;-84
2022/09/10 02:04:51;;;;;;;;;;;;;;;19.54;57.77;99971.75;4999478;28;6992;-84
2022/09/10 02:07:33;;;;;;;;;;;;;;;19.49;57.87;99965.66;4999681;28;6859;-84
2022/09/10 02:10:08;;;;;;;;;;;;;;;19.53;57.76;99969.13;5000345;28;7144;-84
2022/09/10 02:12:34;;;;;;;;;;;;;;;19.57;58.00;99981.31;4965006;28;1747631;-83
2022/09/10 02:15:17;;;;;;;;;;;;;;;19.57;58.05;99976.97;5002179;28;7463;-83
2022/09/10 02:17:45;;;;;;;;;;;;;;;19.54;58.06;99971.75;4996184;28;6996;-84
2022/09/10 02:20:13;;;;;;;;;;;;;;;19.54;57.87;99971.75;4984269;28;7178;-84
2022/09/10 02:22:57;;;;;;;;;;;;;;;19.51;58.49;99952.69;5013124;28;7133;-84
2022/09/10 02:25:43;;;;;;;;;;;;;;;19.52;58.72;99954.41;5008707;28;6978;-84
2022/09/10 02:28:09;;;;;;;;;;;;;;;19.48;57.88;99963.91;5012578;28;6798;-84
2022/09/10 02:30:38;;;;;;;;;;;;;;;19.49;58.44;99960.47;5006149;28;7029;-84
2022/09/10 02:33:07;;;;;;;;;;;;;;;19.47;58.46;99964.78;4992773;28;7052;-83
2022/09/10 02:35:47;;;;;;;;;;;;;;;;;;;;;
2022/09/10 02:38:17;;;;;;;;;;;;;;;19.45;57.94;99965.63;5010644;28;7192;-84
2022/09/10 02:40:50;;;;;;;;;;;;;;;19.49;58.80;99970.00;5008524;28;7150;-84
2022/09/10 02:43:29;;;;;;;;;;;;;;;19.49;58.49;99970.00;4995155;28;6823;-84
2022/09/10 02:46:03;;;;;;;;;;;;;;;19.52;58.86;99973.47;5011083;28;6982;-84
2022/09/10 02:48:29;;;;;;;;;;;;;;;19.50;58.60;99979.53;4995287;28;6975;-84
2022/09/10 02:51:02;;;;;;;;;;;;;;;19.47;58.90;99980.38;5014415;28;7041;-84
2022/09/10 02:53:50;;;;;;;;;;;;;;;;;;;;;
2022/09/10 02:56:26;;;;;;;;;;;;;;;19.38;59.06;99977.72;5009841;28;6816;-83
2022/09/10 02:58:55;;;;;;;;;;;;;;;19.31;59.43;99973.34;5001095;28;6826;-84
2022/09/10 03:01:28;;;;;;;;;;;;;;;19.27;59.22;99973.34;4989343;28;7016;-83
2022/09/10 03:03:57;;;;;;;;;;;;;;;19.22;59.30;99967.28;5008282;28;7037;-83
2022/09/10 03:06:35;;;;;;;;;;;;;;;19.19;60.02;99974.19;5010139;28;6979;-84
2022/09/10 03:09:04;;;;;;;;;;;;;;;19.17;59.58;99971.56;5008754;28;6967;-84
2022/09/10 03:11:38;;;;;;;;;;;;;;;19.16;59.94;99972.44;5008397;28;6957;-83
2022/09/10 03:14:21;;;;;;;;;;;;;;;;;;;;;
2022/09/10 03:16:48;;;;;;;;;;;;;;;19.18;60.10;99964.66;5008631;28;6984;-84
2022/09/10 03:19:19;;;;;;;;;;;;;;;19.22;60.22;99969.00;4994449;28;8589;-84
2022/09/10 03:22:03;;;;;;;;;;;;;;;19.26;60.16;99961.22;4992308;28;6813;-84
2022/09/10 03:24:31;;;;;;;;;;;;;;;19.33;60.18;99962.13;4992817;28;6811;-84
2022/09/10 03:27:00;;;;;;;;;;;;;;;19.34;59.81;99955.22;4993799;28;7236;-84
2022/09/10 03:29:38;;;;;;;;;;;;;;;19.39;60.16;99966.47;5006712;28;7419;-84
2022/09/10 03:32:07;;;;;;;;;;;;;;;19.40;59.62;99957.81;5004711;28;6982;-83
2022/09/10 03:34:32;;;;;;;;;;;;;;;19.46;60.11;99970.84;4994370;28;6806;-83
2022/09/10 03:36:58;;;;;;;;;;;;;;;19.50;60.28;99964.78;5001966;28;7073;-84
2022/09/10 03:39:39;;;;;;;;;;;;;;;19.53;60.11;99962.22;5013055;28;6797;-84
2022/09/10 03:42:42;;;;;;;;;;;;;;;19.55;59.84;99962.22;4998545;28;7241;-84
2022/09/10 03:45:12;;;;;;;;;;;;;;;19.52;60.05;99957.91;4996010;28;6982;-84
2022/09/10 03:47:48;;;;;;;;;;;;;;;19.55;60.08;99965.69;5026874;28;6970;-84
2022/09/10 03:50:15;;;;;;;;;;;;;;;19.55;60.10;99962.22;5012201;28;7203;-84
2022/09/10 03:52:41;;;;;;;;;;;;;;;19.54;60.03;99957.88;5006885;28;6972;-84
2022/09/10 03:55:08;;;;;;;;;;;;;;;19.53;60.35;99963.94;4995790;28;7226;-83
2022/09/10 03:57:36;;;;;;;;;;;;;;;19.52;60.27;99970.88;5013968;28;6966;-84
2022/09/10 04:00:04;;;;;;;;;;;;;;;19.52;60.27;99968.28;5011978;28;6840;-84
2022/09/10 04:02:32;;;;;;;;;;;;;;;19.52;59.98;99957.00;5012280;28;7213;-84
2022/09/10 04:05:10;;;;;;;;;;;;;;;19.51;59.79;99961.34;5000240;28;7325;-84
2022/09/10 04:07:36;;;;;;;;;;;;;;;19.51;59.99;99961.34;4998460;28;6827;-84
2022/09/10 04:10:03;;;;;;;;;;;;;;;19.52;60.23;99963.09;5011979;28;8488;-84
2022/09/10 04:12:29;;;;;;;;;;;;;;;19.51;59.89;99956.16;4991662;28;7198;-84
2022/09/10 04:15:04;;;;;;;;;;;;;;;19.53;60.24;99962.22;5028748;28;7002;-84
2022/09/10 04:17:53;;;;;;;;;;;;;;;19.51;60.16;99958.75;4995576;28;6971;-84
2022/09/10 04:20:48;;;;;;;;;;;;;;;19.52;60.23;99968.28;4988177;28;6984;-84
2022/09/10 04:23:15;;;;;;;;;;;;;;;19.51;60.01;99960.47;4996697;28;7192;-84
2022/09/10 04:25:53;;;;;;;;;;;;;;;19.47;59.89;99954.38;4996883;28;6978;-84
2022/09/10 04:28:19;;;;;;;;;;;;;;;19.51;60.56;99955.28;5011797;28;6882;-84
2022/09/10 04:31:00;;;;;;;;;;;;;;;;;;;;;
2022/09/10 04:33:29;;;;;;;;;;;;;;;19.53;60.06;99959.63;5010715;28;7026;-84
2022/09/10 04:35:59;;;;;;;;;;;;;;;19.54;60.39;99956.16;4994971;28;6970;-84
2022/09/10 04:38:28;;;;;;;;;;;;;;;19.56;60.46;99959.63;4995533;28;8744;-84
2022/09/10 04:40:54;;;;;;;;;;;;;;;19.60;60.18;99960.50;5008809;28;7251;-84
2022/09/10 04:43:27;;;;;;;;;;;;;;;19.65;60.28;99963.13;5013860;28;6964;-84
2022/09/10 04:46:04;;;;;;;;;;;;;;;19.70;60.17;99966.59;4994832;28;6979;-84
2022/09/10 04:48:54;;;;;;;;;;;;;;;;;;;;;
2022/09/10 04:51:32;;;;;;;;;;;;;;;19.74;60.63;99965.75;4994607;28;6913;-83
2022/09/10 04:54:07;;;;;;;;;;;;;;;19.83;60.42;99976.19;5012836;28;7162;-83
2022/09/10 04:56:39;;;;;;;;;;;;;;;19.83;60.47;99967.50;5002162;28;7056;-83
2022/09/10 04:59:06;;;;;;;;;;;;;;;19.84;60.40;99967.53;5011809;28;6970;-83
2022/09/10 05:01:40;;;;;;;;;;;;;;;19.84;60.10;99970.13;5012419;28;7145;-84
2022/09/10 05:04:09;;;;;;;;;;;;;;;19.84;60.22;99966.63;5012174;28;7060;-83
2022/09/10 05:06:38;;;;;;;;;;;;;;;19.84;59.81;99977.03;5003718;28;7149;-82
2022/09/10 05:09:32;;;;;;;;;;;;;;;19.81;60.09;99972.72;5012186;28;6816;-83
2022/09/10 05:12:06;;;;;;;;;;;;;;;19.85;60.02;99963.22;5010434;28;7165;-83
2022/09/10 05:14:52;;;;;;;;;;;;;;;;;;;;;
2022/09/10 05:18:04;;;;;;;;;;;;;;;;;;;;;
2022/09/10 05:20:43;;;;;;;;;;;;;;;19.97;60.41;99975.38;5000052;28;6804;-83
2022/09/10 05:23:53;;;;;;;;;;;;;;;;;;;;;
2022/09/10 05:26:27;;;;;;;;;;;;;;;20.08;59.93;99980.63;4997663;28;6804;-84
2022/09/10 05:29:49;;;;;;;;;;;;;;;20.09;60.34;99977.16;5013322;28;7579;-83
2022/09/10 05:35:32;;;;;;;;;;;;;;;;;;;;;
2022/09/10 05:38:10;;;;;;;;;;;;;;;20.19;60.09;99985.84;4951587;28;6980;-83
2022/09/10 05:40:42;;;;;;;;;;;;;;;20.21;60.08;99986.72;4977314;28;7021;-84
2022/09/10 05:43:37;;;;;;;;;;;;;;;20.21;59.93;99987.56;5012251;28;7011;-83
2022/09/10 05:46:15;;;;;;;;;;;;;;;20.23;59.94;99992.78;4978770;28;8398;-83
2022/09/10 05:49:33;;;;;;;;;;;;;;;;;;;;;
2022/09/10 05:53:10;;;;;;;;;;;;;;;;;;;;;
2022/09/10 05:55:45;;;;;;;;;;;;;;;20.32;59.95;99997.13;4996130;28;6840;-83
2022/09/10 05:58:20;;;;;;;;;;;;;;;20.31;59.91;99995.38;5007957;28;7084;-83
2022/09/10 06:01:33;;;;;;;;;;;;;;;;;;;;;
2022/09/10 06:04:35;;;;;;;;;;;;;;;20.30;59.95;100010.16;4995179;28;6908;-84
2022/09/10 06:07:34;;;;;;;;;;;;;;;20.30;59.92;100004.94;4979496;28;6813;-83
2022/09/10 06:11:05;;;;;;;;;;;;;;;;;;;;;
2022/09/10 06:13:45;;;;;;;;;;;;;;;20.35;59.76;100007.56;4994264;28;6820;-83
2022/09/10 06:16:26;;;;;;;;;;;;;;;;;;;;;
2022/09/10 06:19:28;;;;;;;;;;;;;;;;;;;;;
2022/09/10 06:22:55;;;;;;;;;;;;;;;20.38;60.02;100004.94;4999443;28;6825;-83
2022/09/10 06:26:10;;;;;;;;;;;;;;;;;;;;;
2022/09/10 06:29:10;;;;;;;;;;;;;;;;;;;;;
2022/09/10 06:32:09;;;;;;;;;;;;;;;;;;;;;
2022/09/10 06:35:29;;;;;;;;;;;;;;;;;;;;;
2022/09/10 06:38:10;;;;;;;;;;;;;;;;;;;;;
2022/09/10 06:40:46;;;;;;;;;;;;;;;20.61;59.57;100025.78;4998983;28;6797;-84
2022/09/10 06:46:27;;;;;;;;;;;;;;;20.49;59.49;100029.25;4994106;28;6785;-84
2022/09/10 06:52:10;;;;;;;;;;;;;;;20.32;59.85;100036.16;4965087;28;6825;-83
2022/09/10 06:54:36;;;;;;;;;;;;;;;20.33;60.66;100037.88;4980668;28;7271;-84
2022/09/10 06:57:03;;;;;;;;;;;;;;;20.34;60.49;100039.66;4966623;28;7309;-84
2022/09/10 06:59:40;;;;;;;;;;;;;;;20.35;60.19;100044.00;4981432;28;8485;-84
2022/09/10 07:05:49;;;;;;;;;;;;;;;;;;;;;
2022/09/10 07:08:27;;;;;;;;;;;;;;;20.47;60.34;100037.91;4975925;28;6812;-83
2022/09/10 07:11:32;;;;;;;;;;;;;;;;;;;;;
2022/09/10 07:14:11;;;;;;;;;;;;;;;20.42;60.24;100050.91;4982013;28;7027;-84
2022/09/10 07:16:53;;;;;;;;;;;;;;;20.44;60.13;100048.31;4994987;28;6856;-83
2022/09/10 07:19:46;;;;;;;;;;;;;;;20.37;60.20;100052.66;4976484;28;6870;-83
2022/09/10 07:22:22;;;;;;;;;;;;;;;20.34;60.74;100056.13;4976887;28;7253;-83
2022/09/10 07:24:53;;;;;;;;;;;;;;;20.32;60.55;100050.06;4991536;28;6961;-83
2022/09/10 07:28:12;;;;;;;;;;;;;;;;;;;;;
2022/09/10 07:30:53;;;;;;;;;;;;;;;;;;;;;
2022/09/10 07:34:09;;;;;;;;;;;;;;;20.32;61.50;100050.06;4993330;28;6883;-84
2022/09/10 07:36:41;;;;;;;;;;;;;;;20.33;61.11;100045.69;4994130;28;7013;-84
2022/09/10 07:39:27;;;;;;;;;;;;;;;20.40;61.55;100056.16;4990928;28;7022;-84
2022/09/10 07:42:14;;;;;;;;;;;;;;;20.47;61.69;100054.41;4994055;28;6825;-84
2022/09/10 07:45:04;;;;;;;;;;;;;;;20.54;61.43;100056.16;4999438;28;7013;-84
2022/09/10 07:48:23;;;;;;;;;;;;;;;;;;;;;
2022/09/10 07:51:16;;;;;;;;;;;;;;;;;;;;;
2022/09/10 07:54:09;;;;;;;;;;;;;;;20.69;61.71;100064.84;4992514;28;6831;-82
2022/09/10 07:57:12;;;;;;;;;;;;;;;;;;;;;
2022/09/10 07:59:38;;;;;;;;;;;;;;;20.66;61.08;100065.72;4989995;28;6800;-82
2022/09/10 08:05:13;;;;;;;;;;;;;;;20.59;61.06;100058.78;4980279;28;7055;-83
2022/09/10 08:07:43;;;;;;;;;;;;;;;20.55;60.97;100062.22;4992139;28;7169;-82
2022/09/10 08:10:20;;;;;;;;;;;;;;;20.51;61.12;100070.91;4995413;28;6792;-83
2022/09/10 08:12:46;;;;;;;;;;;;;;;20.47;61.44;100070.03;4984762;28;6811;-83
2022/09/10 08:15:12;;;;;;;;;;;;;;;20.45;61.57;100063.06;4988101;28;7265;-83
2022/09/10 08:17:38;;;;;;;;;;;;;;;20.44;61.36;100058.75;4985833;28;6808;-83
2022/09/10 08:20:09;;;;;;;;;;;;;;;20.43;61.76;100059.59;4987738;28;8534;-83
2022/09/10 08:22:40;;;;;;;;;;;;;;;20.45;61.59;100068.28;4987373;28;6994;-83
2022/09/10 08:25:07;;;;;;;;;;;;;;;20.51;61.27;100079.56;4973852;28;7135;-83
2022/09/10 08:27:49;;;;;;;;;;;;;;;20.59;61.07;100074.41;4969173;28;8409;-83
2022/09/10 08:30:15;;;;;;;;;;;;;;;20.67;61.19;100071.78;4966569;28;6995;-83
2022/09/10 08:32:43;;;;;;;;;;;;;;;20.71;61.05;100075.28;4985163;28;6860;-83
2022/09/10 08:35:13;;;;;;;;;;;;;;;20.70;60.97;100073.53;4984179;28;7170;-83
2022/09/10 08:37:42;;;;;;;;;;;;;;;20.67;61.23;100079.59;4987048;28;7584;-83
2022/09/10 08:40:12;;;;;;;;;;;;;;;20.64;61.21;100090.88;4970187;28;6850;-83
2022/09/10 08:42:48;;;;;;;;;;;;;;;20.63;61.01;100085.69;4974614;28;6880;-83
2022/09/10 08:45:31;;;;;;;;;;;;;;;20.59;60.97;100084.81;4970463;28;6998;-83
2022/09/10 08:48:24;;;;;;;;;;;;;;;20.56;61.22;100082.19;4969092;28;6798;-83
2022/09/10 08:51:17;;;;;;;;;;;;;;;20.55;61.37;100088.25;4987992;28;7007;-82
2022/09/10 08:54:19;;;;;;;;;;;;;;;20.55;61.82;100085.66;4992190;28;6955;-82
2022/09/10 08:57:02;;;;;;;;;;;;;;;20.54;61.69;100091.72;4987757;28;7228;-85
2022/09/10 08:59:56;;;;;;;;;;;;;;;;;;;;;
2022/09/10 09:02:28;;;;;;;;;;;;;;;20.58;61.90;100090.88;4986275;28;6796;-82
2022/09/10 09:05:11;;;;;;;;;;;;;;;20.66;62.15;100091.75;4993215;28;8418;-83
2022/09/10 09:08:05;;;;;;;;;;;;;;;;;;;;;
2022/09/10 09:11:09;;;;;;;;;;;;;;;20.70;61.61;100092.63;4991643;28;6892;-83
2022/09/10 09:14:32;;;;;;;;;;;;;;;;;;;;;
2022/09/10 09:17:24;;;;;;;;;;;;;;;20.58;61.68;100082.19;4989062;28;6812;-83
2022/09/10 09:24:03;;;;;;;;;;;;;;;;;;;;;
2022/09/10 09:27:12;;;;;;;;;;;;;;;;;;;;;
2022/09/10 09:29:55;;;;;;;;;;;;;;;;;;;;;
2022/09/10 09:32:40;;;;;;;;;;;;;;;20.44;61.55;100096.06;4984318;28;6883;-82
2022/09/10 09:35:41;;;;;;;;;;;;;;;20.46;61.77;100101.25;4977826;28;7235;-83
2022/09/10 09:42:50;;;;;;;;;;;;;;;20.48;61.98;100092.59;4993511;28;6804;-83
2022/09/10 09:45:52;;;;;;;;;;;;;;;;;;;;;
2022/09/10 09:48:34;;;;;;;;;;;;;;;;;;;;;
2022/09/10 09:51:34;;;;;;;;;;;;;;;;;;;;;
2022/09/10 09:54:00;;;;;;;;;;;;;;;20.94;62.34;100102.22;4979212;28;6967;-82
2022/09/10 09:56:57;;;;;;;;;;;;;;;21.07;61.83;100105.69;4993288;28;7245;-83
2022/09/10 10:00:02;;;;;;;;;;;;;;;;;;;;;
2022/09/10 10:02:47;;;;;;;;;;;;;;;21.28;61.35;100096.13;4979263;28;6929;-83
2022/09/10 10:06:09;;;;;;;;;;;;;;;;;;;;;
2022/09/10 10:12:17;;;;;;;;;;;;;;;;;;;;;
2022/09/10 10:15:03;;;;;;;;;;;;;;;21.66;60.79;100086.50;4976751;28;6796;-83
2022/09/10 10:17:44;;;;;;;;;;;;;;;;;;;;;
2022/09/10 10:20:41;;;;;;;;;;;;;;;21.63;59.80;100081.28;4976916;28;6823;-84
2022/09/10 10:26:56;;;;;;;;;;;;;;;21.29;60.34;100091.81;4941149;29;6962;-83
2022/09/10 10:29:32;;;;;;;;;;;;;;;;;;;;;
2022/09/10 10:32:18;;;;;;;;;;;;;;;21.26;60.69;100104.84;4977138;28;6828;-84
2022/09/10 10:35:46;;;;;;;;;;;;;;;;;;;;;
2022/09/10 10:38:30;;;;;;;;;;;;;;;21.38;60.77;100099.59;4975012;28;6830;-83
2022/09/10 10:41:20;;;;;;;;;;;;;;;;;;;;;
2022/09/10 10:45:07;;;;;;;;;;;;;;;21.50;60.62;100099.56;4989087;28;6854;-83
2022/09/10 10:48:12;;;;;;;;;;;;;;;;;;;;;
2022/09/10 10:51:02;;;;;;;;;;;;;;;21.62;60.27;100103.91;4996186;28;6856;-82
2022/09/10 10:53:59;;;;;;;;;;;;;;;21.64;59.82;100107.38;4981749;28;6808;-83
2022/09/10 10:56:50;;;;;;;;;;;;;;;21.58;59.71;100111.75;4995272;28;7075;-83
2022/09/10 10:59:49;;;;;;;;;;;;;;;21.43;59.92;100105.66;4994530;28;6805;-83
2022/09/10 11:02:53;;;;;;;;;;;;;;;21.28;60.12;100113.53;4981765;28;7052;-83
2022/09/10 11:05:38;;;;;;;;;;;;;;;21.21;60.70;100112.66;4996319;28;7007;-83
2022/09/10 11:09:04;;;;;;;;;;;;;;;;;;;;;
2022/09/10 11:12:08;;;;;;;;;;;;;;;21.21;60.52;100116.13;4978174;28;6865;-83
2022/09/10 11:15:41;;;;;;;;;;;;;;;21.27;60.53;100098.75;4977122;28;7130;-83
2022/09/10 11:18:36;;;;;;;;;;;;;;;21.26;60.47;100112.66;4987262;28;7005;-83
2022/09/10 11:21:43;;;;;;;;;;;;;;;21.21;60.65;100120.47;4952053;28;7024;-83
2022/09/10 11:25:03;;;;;;;;;;;;;;;21.17;60.88;100119.63;4991280;28;6821;-83
2022/09/10 11:27:40;;;;;;;;;;;;;;;21.19;61.47;100110.03;4994458;28;6867;-83
2022/09/10 11:30:21;;;;;;;;;;;;;;;21.26;61.74;100097.88;4993586;28;6883;-83
2022/09/10 11:33:31;;;;;;;;;;;;;;;21.38;61.71;100107.44;4961135;28;11249;-83
2022/09/10 11:36:16;;;;;;;;;;;;;;;;;;;;;
2022/09/10 11:40:03;;;;;;;;;;;;;;;;;;;;;
2022/09/10 11:43:43;;;;;;;;;;;;;;;;;;;;;
2022/09/10 11:46:31;;;;;;;;;;;;;;;21.84;60.78;100098.66;4949704;28;7494;-82
2022/09/10 11:49:16;;;;;;;;;;;;;;;21.80;60.82;100096.06;4992167;28;6812;-82
2022/09/10 11:52:24;;;;;;;;;;;;;;;21.72;60.63;100104.75;4992369;28;7012;-83
2022/09/10 11:55:00;;;;;;;;;;;;;;;21.62;60.86;100116.94;4998315;28;6970;-83
2022/09/10 11:58:01;;;;;;;;;;;;;;;21.47;60.66;100109.13;4992410;28;6979;-83
2022/09/10 12:00:55;;;;;;;;;;;;;;;21.38;61.01;100115.25;4954958;28;7233;-82
2022/09/10 12:04:17;;;;;;;;;;;;;;;;;;;;;
2022/09/10 12:07:22;;;;;;;;;;;;;;;21.15;61.18;100125.69;4979222;28;6899;-83
2022/09/10 12:10:18;;;;;;;;;;;;;;;21.07;61.29;100117.88;4995769;28;7497;-83
2022/09/10 12:12:52;;;;;;;;;;;;;;;21.01;61.43;100110.03;4993349;28;7015;-82
2022/09/10 12:15:40;;;;;;;;;;;;;;;20.98;61.60;100112.66;4992539;28;6976;-82
2022/09/10 12:18:47;;;;;;;;;;;;;;;20.94;62.04;100110.03;4981541;28;6961;-82
2022/09/10 12:21:52;;;;;;;;;;;;;;;20.99;62.45;100119.59;4973987;28;6832;-82
2022/09/10 12:24:36;;;;;;;;;;;;;;;21.04;62.80;100120.47;4991965;28;6973;-82
2022/09/10 12:27:05;;;;;;;;;;;;;;;21.16;62.80;100122.19;4972984;28;7191;-82
2022/09/10 12:29:48;;;;;;;;;;;;;;;21.32;62.92;100123.94;4978650;28;8510;-82
2022/09/10 12:32:29;;;;;;;;;;;;;;;21.50;62.70;100130.88;4975910;28;6979;-82
2022/09/10 12:35:40;;;;;;;;;;;;;;;21.65;62.64;100129.13;4990751;28;6788;-82
2022/09/10 12:39:22;;;;;;;;;;;;;;;;;;;;;
2022/09/10 12:42:34;;;;;;;;;;;;;;;21.93;62.41;100121.25;4944946;28;6848;-82
2022/09/10 12:45:00;;;;;;;;;;;;;;;22.06;62.37;100125.53;4989301;28;6966;-82
2022/09/10 12:47:51;;;;;;;;;;;;;;;22.17;62.41;100125.50;4990955;28;7037;-82
2022/09/10 12:50:51;;;;;;;;;;;;;;;22.31;61.88;100121.94;4980888;28;6803;-83
2022/09/10 12:54:10;;;;;;;;;;;;;;;;;;;;;
2022/09/10 12:57:26;;;;;;;;;;;;;;;;;;;;;
2022/09/10 13:01:16;;;;;;;;;;;;;;;;;;;;;
2022/09/10 13:04:02;;;;;;;;;;;;;;;22.34;61.75;100114.97;4902444;28;21330;-83
2022/09/10 13:06:47;;;;;;;;;;;;;;;22.36;61.24;100114.09;4992258;28;7912;-83
2022/09/10 13:10:12;;;;;;;;;;;;;;;;;;;;;
2022/09/10 13:12:45;;;;;;;;;;;;;;;22.27;61.22;100117.63;4981232;28;6848;-83
2022/09/10 13:15:29;;;;;;;;;;;;;;;22.27;61.22;100131.53;4978138;28;6824;-82
2022/09/10 13:17:55;;;;;;;;;;;;;;;22.27;61.45;100123.69;4976504;28;6992;-82
2022/09/10 13:20:39;;;;;;;;;;;;;;;22.26;61.22;100127.19;4994983;28;6968;-83
2022/09/10 13:23:41;;;;;;;;;;;;;;;;;;;;;
2022/09/10 13:27:01;;;;;;;;;;;;;;;22.30;61.38;100134.13;4989182;28;7218;-83
2022/09/10 13:30:23;;;;;;;;;;;;;;;;;;;;;
2022/09/10 13:33:17;;;;;;;;;;;;;;;22.47;61.48;100127.94;4915732;29;20464;-82
2022/09/10 13:36:28;;;;;;;;;;;;;;;22.60;61.87;100127.06;4937540;29;6803;-82
2022/09/10 13:40:16;;;;;;;;;;;;;;;22.83;62.13;100128.63;4938383;29;8467;-83
2022/09/10 13:43:56;;;;;;;;;;;;;;;;;;;;;
2022/09/10 13:47:07;;;;;;;;;;;;;;;;;;;;;
2022/09/10 13:50:22;;;;;;;;;;;;;;;24.08;61.32;100130.13;4896074;29;6881;-83
2022/09/10 13:53:17;;;;;;;;;;;;;;;;;;;;;
2022/09/10 13:56:02;;;;;;;;;;;;;;;24.41;59.28;100133.19;4991759;28;6796;-83
2022/09/10 13:59:16;;;;;;;;;;;;;;;;;;;;;
2022/09/10 14:02:24;;;;;;;;;;;;;;;;;;;;;
2022/09/10 14:05:22;;;;;;;;;;;;;;;24.03;58.67;100148.47;4979795;28;6868;-83
2022/09/10 14:08:43;;;;;;;;;;;;;;;;;;;;;
2022/09/10 14:12:02;;;;;;;;;;;;;;;23.96;58.84;100167.75;4975877;28;7066;-84
2022/09/10 14:14:37;;;;;;;;;;;;;;;24.06;58.87;100158.09;4991845;28;6982;-83
2022/09/10 14:17:33;;;;;;;;;;;;;;;24.19;58.32;100157.03;4985545;28;7050;-83
2022/09/10 14:20:16;;;;;;;;;;;;;;;24.35;59.24;100133.28;4980626;28;6800;-83
2022/09/10 14:22:44;;;;;;;;;;;;;;;24.68;59.02;100138.94;4973584;28;6999;-83
2022/09/10 14:25:38;;;;;;;;;;;;;;;24.92;57.69;100156.06;4983765;28;7294;-83
2022/09/10 14:28:26;;;;;;;;;;;;;;;24.95;56.74;100163.03;4983466;28;6820;-83
2022/09/10 14:31:20;;;;;;;;;;;;;;;24.84;56.49;100163.16;4966371;28;6991;-83
2022/09/10 14:33:46;;;;;;;;;;;;;;;24.69;56.57;100159.00;4969435;28;6881;-83
2022/09/10 14:36:20;;;;;;;;;;;;;;;24.64;56.43;100155.59;4969846;28;7184;-83
2022/09/10 14:39:15;;;;;;;;;;;;;;;24.56;57.15;100158.28;4984032;28;6826;-83
2022/09/10 14:41:41;;;;;;;;;;;;;;;24.44;57.06;100169.81;4967278;28;6991;-83
2022/09/10 14:44:39;;;;;;;;;;;;;;;24.46;57.43;100167.16;4968334;28;7053;-83
2022/09/10 14:47:08;;;;;;;;;;;;;;;24.65;57.48;100159.94;4966460;28;6805;-84
2022/09/10 14:49:37;;;;;;;;;;;;;;;24.96;58.17;100159.50;4986555;28;7127;-83
2022/09/10 14:52:04;;;;;;;;;;;;;;;25.41;57.27;100158.75;4985871;28;6976;-82
2022/09/10 14:54:33;;;;;;;;;;;;;;;25.81;56.46;100146.72;4985301;28;6897;-83
2022/09/10 14:57:26;;;;;;;;;;;;;;;26.15;55.36;100140.75;4980285;28;7066;-84
2022/09/10 14:59:52;;;;;;;;;;;;;;;26.31;54.55;100141.31;4962982;28;7170;-84
2022/09/10 15:02:25;;;;;;;;;;;;;;;26.37;53.88;100144.72;4973153;28;6897;-83
2022/09/10 15:04:53;;;;;;;;;;;;;;;26.41;53.70;100136.75;4966102;28;7135;-83
2022/09/10 15:07:22;;;;;;;;;;;;;;;26.51;53.22;100139.19;4981054;28;6879;-83
2022/09/10 15:09:48;;;;;;;;;;;;;;;26.54;52.50;100139.09;4982889;28;6808;-84
2022/09/10 15:12:22;;;;;;;;;;;;;;;26.38;51.99;100135.97;4982884;28;8574;-83
2022/09/10 15:14:49;;;;;;;;;;;;;;;26.07;51.69;100145.31;4966647;28;7140;-83
2022/09/10 15:17:16;;;;;;;;;;;;;;;25.71;51.95;100145.16;4983625;28;6988;-83
2022/09/10 15:19:43;;;;;;;;;;;;;;;25.32;51.97;100149.31;4967280;28;7047;-83
2022/09/10 15:22:30;;;;;;;;;;;;;;;24.90;52.62;100164.84;4974155;28;6981;-83
2022/09/10 15:24:58;;;;;;;;;;;;;;;24.49;52.48;100172.38;4982982;28;6998;-83
2022/09/10 15:27:23;;;;;;;;;;;;;;;24.14;53.08;100179.78;4967650;28;7194;-83
2022/09/10 15:29:49;;;;;;;;;;;;;;;23.81;53.40;100192.31;4965885;28;8430;-83
2022/09/10 15:32:17;;;;;;;;;;;;;;;23.49;54.15;100206.59;4973351;28;7417;-83
2022/09/10 15:34:43;;;;;;;;;;;;;;;23.14;54.37;100204.19;4992516;28;7339;-82
2022/09/10 15:37:12;;;;;;;;;;;;;;;22.82;54.91;100197.44;4986561;28;7021;-82
2022/09/10 15:39:38;;;;;;;;;;;;;;;22.52;56.00;100193.25;4977881;28;7083;-82
2022/09/10 15:42:05;;;;;;;;;;;;;;;22.28;56.43;100201.13;4986612;28;7024;-82
2022/09/10 15:44:37;;;;;;;;;;;;;;;22.09;57.23;100221.22;4985652;28;6991;-82
2022/09/10 15:47:02;;;;;;;;;;;;;;;21.94;58.02;100221.25;4985979;28;6990;-82
2022/09/10 15:49:29;;;;;;;;;;;;;;;21.81;58.16;100215.16;4987702;28;7136;-82
2022/09/10 15:51:56;;;;;;;;;;;;;;;21.75;59.14;100206.50;4969587;28;8602;-82
2022/09/10 15:54:22;;;;;;;;;;;;;;;21.76;59.28;100212.56;4986441;28;7171;-82
2022/09/10 15:56:48;;;;;;;;;;;;;;;21.78;59.37;100216.06;4989233;28;6985;-82
2022/09/10 15:59:15;;;;;;;;;;;;;;;21.82;59.31;100214.28;4985616;28;6829;-82
2022/09/10 16:01:41;;;;;;;;;;;;;;;21.89;59.70;100223.84;4983156;28;6911;-83
2022/09/10 16:04:08;;;;;;;;;;;;;;;21.88;59.59;100227.34;4970908;28;6987;-83
2022/09/10 16:06:39;;;;;;;;;;;;;;;21.89;59.92;100229.06;4986637;28;6965;-82
2022/09/10 16:09:09;;;;;;;;;;;;;;;21.89;59.89;100239.50;4989085;28;7003;-82
2022/09/10 16:11:39;;;;;;;;;;;;;;;21.90;60.12;100236.03;4990070;28;7222;-83
2022/09/10 16:14:12;;;;;;;;;;;;;;;21.88;59.93;100222.13;4990851;28;7083;-83
2022/09/10 16:16:39;;;;;;;;;;;;;;;21.89;60.22;100231.69;4991067;28;7748;-83